sensor_id;sensor_type;location;lat;lon;timestamp;pressure;altitude;pressure_sealevel;temperature;humidity
74327;BME280;62745;51.060;13.786;2023-02-03T00:01:33;101038.84;;;3.00;93.07
74327;BME280;62745;51.060;13.786;2023-02-03T00:03:59;101043.06;;;3.03;92.98
74327;BME280;62745;51.060;13.786;2023-02-03T00:06:24;101038.66;;;2.92;91.51
74327;BME280;62745;51.060;13.786;2023-02-03T00:08:52;101038.13;;;3.09;91.41
74327;BME280;62745;51.060;13.786;2023-02-03T00:11:19;101045.19;;;3.20;92.37
74327;BME280;62745;51.060;13.786;2023-02-03T00:13:44;101042.97;;;3.57;90.16
74327;BME280;62745;51.060;13.786;2023-02-03T00:16:10;101039.50;;;3.24;91.11
74327;BME280;62745;51.060;13.786;2023-02-03T00:18:35;101032.28;;;3.38;90.69
74327;BME280;62745;51.060;13.786;2023-02-03T00:21:00;101023.38;;;3.39;91.49
74327;BME280;62745;51.060;13.786;2023-02-03T00:23:26;101025.75;;;3.42;91.53
74327;BME280;62745;51.060;13.786;2023-02-03T00:25:54;101020.91;;;3.26;91.34
74327;BME280;62745;51.060;13.786;2023-02-03T00:28:19;101026.94;;;3.17;91.10
74327;BME280;62745;51.060;13.786;2023-02-03T00:30:44;101031.84;;;3.21;91.99
74327;BME280;62745;51.060;13.786;2023-02-03T00:33:10;101029.97;;;3.33;91.47
74327;BME280;62745;51.060;13.786;2023-02-03T00:35:38;101024.13;;;3.29;91.92
74327;BME280;62745;51.060;13.786;2023-02-03T00:38:04;101018.97;;;3.28;92.14
74327;BME280;62745;51.060;13.786;2023-02-03T00:40:29;101008.94;;;3.22;92.06
74327;BME280;62745;51.060;13.786;2023-02-03T00:42:54;101008.06;;;3.53;90.77
74327;BME280;62745;51.060;13.786;2023-02-03T00:45:20;101003.88;;;3.72;90.14
74327;BME280;62745;51.060;13.786;2023-02-03T00:47:45;100995.44;;;3.57;90.88
74327;BME280;62745;51.060;13.786;2023-02-03T00:50:10;100985.44;;;3.40;92.03
74327;BME280;62745;51.060;13.786;2023-02-03T00:52:35;100983.50;;;3.62;90.97
74327;BME280;62745;51.060;13.786;2023-02-03T00:55:01;100979.78;;;3.44;92.07
74327;BME280;62745;51.060;13.786;2023-02-03T00:57:26;100987.41;;;3.68;90.89
74327;BME280;62745;51.060;13.786;2023-02-03T00:59:52;100973.25;;;3.48;92.18
74327;BME280;62745;51.060;13.786;2023-02-03T01:02:18;100968.31;;;3.55;92.75
74327;BME280;62745;51.060;13.786;2023-02-03T01:04:43;100962.88;;;3.36;93.90
74327;BME280;62745;51.060;13.786;2023-02-03T01:07:09;100958.19;;;3.39;92.34
74327;BME280;62745;51.060;13.786;2023-02-03T01:09:35;100951.16;;;3.49;92.75
74327;BME280;62745;51.060;13.786;2023-02-03T01:12:01;100949.88;;;3.44;92.38
74327;BME280;62745;51.060;13.786;2023-02-03T01:14:26;100948.44;;;3.19;91.24
74327;BME280;62745;51.060;13.786;2023-02-03T01:16:51;100935.50;;;3.16;93.44
74327;BME280;62745;51.060;13.786;2023-02-03T01:19:16;100928.41;;;3.16;94.11
74327;BME280;62745;51.060;13.786;2023-02-03T01:21:42;100924.34;;;3.12;93.30
74327;BME280;62745;51.060;13.786;2023-02-03T01:24:07;100914.81;;;3.00;94.38
74327;BME280;62745;51.060;13.786;2023-02-03T01:26:34;100913.63;;;3.04;93.31
74327;BME280;62745;51.060;13.786;2023-02-03T01:28:59;100911.34;;;2.99;94.04
74327;BME280;62745;51.060;13.786;2023-02-03T01:31:27;100901.44;;;2.92;93.85
74327;BME280;62745;51.060;13.786;2023-02-03T01:33:54;100893.78;;;2.89;94.47
74327;BME280;62745;51.060;13.786;2023-02-03T01:36:22;100889.69;;;2.85;93.67
74327;BME280;62745;51.060;13.786;2023-02-03T01:38:47;100880.44;;;2.90;94.60
74327;BME280;62745;51.060;13.786;2023-02-03T01:41:16;100866.16;;;2.93;94.35
74327;BME280;62745;51.060;13.786;2023-02-03T01:43:44;100864.41;;;2.82;94.50
74327;BME280;62745;51.060;13.786;2023-02-03T01:48:52;100869.41;;;2.85;94.24
74327;BME280;62745;51.060;13.786;2023-02-03T01:51:19;100869.06;;;2.90;94.07
74327;BME280;62745;51.060;13.786;2023-02-03T01:53:46;100864.03;;;2.87;94.68
74327;BME280;62745;51.060;13.786;2023-02-03T01:56:11;100869.53;;;2.84;94.27
74327;BME280;62745;51.060;13.786;2023-02-03T01:58:40;100866.69;;;2.87;93.45
74327;BME280;62745;51.060;13.786;2023-02-03T02:01:06;100855.50;;;2.83;95.24
74327;BME280;62745;51.060;13.786;2023-02-03T02:04:00;100845.47;;;2.77;94.53
74327;BME280;62745;51.060;13.786;2023-02-03T02:06:26;100845.88;;;2.72;95.13
74327;BME280;62745;51.060;13.786;2023-02-03T02:08:52;100841.19;;;2.76;96.58
74327;BME280;62745;51.060;13.786;2023-02-03T02:11:18;100831.78;;;2.83;96.72
74327;BME280;62745;51.060;13.786;2023-02-03T02:13:46;100823.84;;;2.83;97.16
74327;BME280;62745;51.060;13.786;2023-02-03T02:16:20;100810.78;;;2.82;97.01
74327;BME280;62745;51.060;13.786;2023-02-03T02:24:21;100794.63;;;3.17;95.82
74327;BME280;62745;51.060;13.786;2023-02-03T02:27:09;100793.78;;;3.47;94.80
74327;BME280;62745;51.060;13.786;2023-02-03T02:30:04;100785.50;;;3.30;94.94
74327;BME280;62745;51.060;13.786;2023-02-03T02:33:00;100793.06;;;3.14;95.06
74327;BME280;62745;51.060;13.786;2023-02-03T02:35:55;100779.19;;;3.12;95.68
74327;BME280;62745;51.060;13.786;2023-02-03T02:38:40;100766.69;;;3.14;95.94
74327;BME280;62745;51.060;13.786;2023-02-03T02:41:10;100772.09;;;3.13;95.68
74327;BME280;62745;51.060;13.786;2023-02-03T02:43:44;100757.50;;;3.09;95.51
74327;BME280;62745;51.060;13.786;2023-02-03T02:46:14;100752.97;;;3.20;95.35
74327;BME280;62745;51.060;13.786;2023-02-03T02:48:56;100749.00;;;3.05;95.30
74327;BME280;62745;51.060;13.786;2023-02-03T02:51:24;100743.13;;;3.01;94.61
74327;BME280;62745;51.060;13.786;2023-02-03T02:53:53;100747.94;;;3.17;95.40
74327;BME280;62745;51.060;13.786;2023-02-03T02:56:20;100739.44;;;3.14;94.63
74327;BME280;62745;51.060;13.786;2023-02-03T02:58:47;100728.31;;;3.10;95.99
74327;BME280;62745;51.060;13.786;2023-02-03T03:01:14;100723.19;;;3.09;96.14
74327;BME280;62745;51.060;13.786;2023-02-03T03:03:40;100709.06;;;3.19;95.16
74327;BME280;62745;51.060;13.786;2023-02-03T03:06:13;100694.72;;;3.12;95.83
74327;BME280;62745;51.060;13.786;2023-02-03T03:08:49;100696.28;;;3.24;95.99
74327;BME280;62745;51.060;13.786;2023-02-03T03:11:16;100690.84;;;3.16;96.02
74327;BME280;62745;51.060;13.786;2023-02-03T03:13:47;100683.88;;;3.15;96.46
74327;BME280;62745;51.060;13.786;2023-02-03T03:16:15;100678.50;;;3.26;96.28
74327;BME280;62745;51.060;13.786;2023-02-03T03:18:45;100671.97;;;3.30;96.74
74327;BME280;62745;51.060;13.786;2023-02-03T03:21:17;100675.19;;;3.24;97.45
74327;BME280;62745;51.060;13.786;2023-02-03T03:23:46;100661.13;;;3.24;97.47
74327;BME280;62745;51.060;13.786;2023-02-03T03:26:35;100663.66;;;3.35;96.67
74327;BME280;62745;51.060;13.786;2023-02-03T03:29:19;100667.03;;;3.37;96.13
74327;BME280;62745;51.060;13.786;2023-02-03T03:31:47;100661.16;;;3.33;96.69
74327;BME280;62745;51.060;13.786;2023-02-03T03:34:13;100650.84;;;3.21;96.16
74327;BME280;62745;51.060;13.786;2023-02-03T03:37:02;100658.09;;;3.28;96.50
74327;BME280;62745;51.060;13.786;2023-02-03T03:42:25;100658.16;;;3.57;95.25
74327;BME280;62745;51.060;13.786;2023-02-03T03:47:41;100650.91;;;3.59;95.91
74327;BME280;62745;51.060;13.786;2023-02-03T03:50:11;100654.97;;;3.54;95.50
74327;BME280;62745;51.060;13.786;2023-02-03T03:52:40;100647.88;;;3.54;96.43
74327;BME280;62745;51.060;13.786;2023-02-03T03:55:09;100643.53;;;3.44;96.89
74327;BME280;62745;51.060;13.786;2023-02-03T03:57:42;100645.50;;;3.61;96.93
74327;BME280;62745;51.060;13.786;2023-02-03T04:00:11;100638.97;;;3.65;96.25
74327;BME280;62745;51.060;13.786;2023-02-03T04:02:39;100637.72;;;3.59;96.80
74327;BME280;62745;51.060;13.786;2023-02-03T04:05:07;100613.25;;;3.77;96.90
74327;BME280;62745;51.060;13.786;2023-02-03T04:07:42;100600.88;;;3.87;96.27
74327;BME280;62745;51.060;13.786;2023-02-03T04:10:38;100590.41;;;4.05;96.42
74327;BME280;62745;51.060;13.786;2023-02-03T04:13:05;100580.94;;;4.02;95.68
74327;BME280;62745;51.060;13.786;2023-02-03T04:15:31;100570.22;;;4.13;96.30
74327;BME280;62745;51.060;13.786;2023-02-03T04:17:56;100568.09;;;4.17;95.36
74327;BME280;62745;51.060;13.786;2023-02-03T04:20:23;100561.88;;;4.08;95.69
74327;BME280;62745;51.060;13.786;2023-02-03T04:22:48;100557.28;;;4.01;96.76
74327;BME280;62745;51.060;13.786;2023-02-03T04:25:14;100552.16;;;3.99;97.31
74327;BME280;62745;51.060;13.786;2023-02-03T04:27:39;100555.81;;;3.88;98.17
74327;BME280;62745;51.060;13.786;2023-02-03T04:30:05;100542.66;;;4.16;96.74
74327;BME280;62745;51.060;13.786;2023-02-03T04:32:31;100555.63;;;4.09;97.31
74327;BME280;62745;51.060;13.786;2023-02-03T04:34:57;100549.16;;;4.31;96.45
74327;BME280;62745;51.060;13.786;2023-02-03T04:37:23;100558.03;;;4.40;96.25
74327;BME280;62745;51.060;13.786;2023-02-03T04:39:50;100527.69;;;4.34;96.52
74327;BME280;62745;51.060;13.786;2023-02-03T04:42:16;100555.78;;;4.45;97.32
74327;BME280;62745;51.060;13.786;2023-02-03T04:44:41;100551.44;;;4.53;96.57
74327;BME280;62745;51.060;13.786;2023-02-03T04:47:07;100546.47;;;4.68;97.27
74327;BME280;62745;51.060;13.786;2023-02-03T04:49:32;100550.56;;;4.90;97.11
74327;BME280;62745;51.060;13.786;2023-02-03T04:51:57;100546.38;;;5.33;95.40
74327;BME280;62745;51.060;13.786;2023-02-03T04:54:22;100531.75;;;5.47;95.26
74327;BME280;62745;51.060;13.786;2023-02-03T04:56:48;100527.50;;;5.71;93.95
74327;BME280;62745;51.060;13.786;2023-02-03T04:59:13;100550.66;;;5.69;94.26
74327;BME280;62745;51.060;13.786;2023-02-03T05:01:38;100538.56;;;5.67;94.48
74327;BME280;62745;51.060;13.786;2023-02-03T05:04:03;100535.38;;;5.63;94.75
74327;BME280;62745;51.060;13.786;2023-02-03T05:06:29;100539.84;;;5.63;95.14
74327;BME280;62745;51.060;13.786;2023-02-03T05:08:56;100532.22;;;5.60;95.47
74327;BME280;62745;51.060;13.786;2023-02-03T05:11:21;100519.13;;;5.58;95.19
74327;BME280;62745;51.060;13.786;2023-02-03T05:13:47;100520.63;;;5.61;94.72
74327;BME280;62745;51.060;13.786;2023-02-03T05:16:13;100518.84;;;5.69;93.97
74327;BME280;62745;51.060;13.786;2023-02-03T05:18:38;100515.09;;;5.72;94.03
74327;BME280;62745;51.060;13.786;2023-02-03T05:21:03;100506.34;;;5.80;93.10
74327;BME280;62745;51.060;13.786;2023-02-03T05:23:29;100507.19;;;5.80;93.25
74327;BME280;62745;51.060;13.786;2023-02-03T05:25:54;100504.16;;;5.75;94.04
74327;BME280;62745;51.060;13.786;2023-02-03T05:28:19;100491.44;;;5.79;93.82
74327;BME280;62745;51.060;13.786;2023-02-03T05:30:45;100493.94;;;5.80;94.75
74327;BME280;62745;51.060;13.786;2023-02-03T05:33:10;100481.50;;;5.81;93.64
74327;BME280;62745;51.060;13.786;2023-02-03T05:35:35;100470.06;;;5.80;93.51
74327;BME280;62745;51.060;13.786;2023-02-03T05:38:01;100470.44;;;5.85;93.04
74327;BME280;62745;51.060;13.786;2023-02-03T05:40:27;100469.16;;;5.89;92.59
74327;BME280;62745;51.060;13.786;2023-02-03T05:43:11;100484.50;;;5.86;92.73
74327;BME280;62745;51.060;13.786;2023-02-03T05:45:36;100484.38;;;6.89;98.06
74327;BME280;62745;51.060;13.786;2023-02-03T05:48:02;100479.44;;;7.43;91.19
74327;BME280;62745;51.060;13.786;2023-02-03T05:50:28;100474.75;;;7.70;89.69
74327;BME280;62745;51.060;13.786;2023-02-03T05:52:58;100488.53;;;7.81;89.83
74327;BME280;62745;51.060;13.786;2023-02-03T05:55:24;100489.53;;;7.89;89.73
74327;BME280;62745;51.060;13.786;2023-02-03T05:57:49;100492.69;;;7.92;88.16
74327;BME280;62745;51.060;13.786;2023-02-03T06:00:14;100500.03;;;7.74;89.36
74327;BME280;62745;51.060;13.786;2023-02-03T06:02:40;100493.72;;;7.75;88.81
74327;BME280;62745;51.060;13.786;2023-02-03T06:05:05;100487.03;;;7.95;85.76
74327;BME280;62745;51.060;13.786;2023-02-03T06:07:30;100478.19;;;8.11;89.45
74327;BME280;62745;51.060;13.786;2023-02-03T06:09:56;100485.41;;;7.78;86.04
74327;BME280;62745;51.060;13.786;2023-02-03T06:12:21;100491.06;;;7.50;86.54
74327;BME280;62745;51.060;13.786;2023-02-03T06:14:47;100497.00;;;7.93;86.77
74327;BME280;62745;51.060;13.786;2023-02-03T06:17:12;100469.94;;;7.81;86.67
74327;BME280;62745;51.060;13.786;2023-02-03T06:19:37;100477.41;;;7.78;86.74
74327;BME280;62745;51.060;13.786;2023-02-03T06:22:02;100486.84;;;7.97;86.18
74327;BME280;62745;51.060;13.786;2023-02-03T06:24:28;100472.59;;;7.81;86.01
74327;BME280;62745;51.060;13.786;2023-02-03T06:26:53;100461.13;;;7.81;85.68
74327;BME280;62745;51.060;13.786;2023-02-03T06:29:18;100450.19;;;7.51;84.80
74327;BME280;62745;51.060;13.786;2023-02-03T06:31:43;100454.66;;;7.51;85.59
74327;BME280;62745;51.060;13.786;2023-02-03T06:34:09;100446.66;;;7.92;85.15
74327;BME280;62745;51.060;13.786;2023-02-03T06:36:34;100445.03;;;7.50;84.27
74327;BME280;62745;51.060;13.786;2023-02-03T06:38:59;100450.34;;;7.74;84.57
74327;BME280;62745;51.060;13.786;2023-02-03T06:41:24;100456.47;;;7.91;84.27
74327;BME280;62745;51.060;13.786;2023-02-03T06:43:54;100440.31;;;7.84;85.22
74327;BME280;62745;51.060;13.786;2023-02-03T06:46:19;100432.88;;;7.80;85.07
74327;BME280;62745;51.060;13.786;2023-02-03T06:48:44;100433.69;;;7.72;84.22
74327;BME280;62745;51.060;13.786;2023-02-03T06:51:10;100424.25;;;6.80;87.03
74327;BME280;62745;51.060;13.786;2023-02-03T06:53:35;100432.31;;;6.54;88.95
74327;BME280;62745;51.060;13.786;2023-02-03T06:56:00;100413.84;;;6.37;91.08
74327;BME280;62745;51.060;13.786;2023-02-03T06:58:27;100426.44;;;6.26;91.35
74327;BME280;62745;51.060;13.786;2023-02-03T07:00:55;100400.53;;;6.20;92.31
74327;BME280;62745;51.060;13.786;2023-02-03T07:03:21;100404.16;;;6.19;91.22
74327;BME280;62745;51.060;13.786;2023-02-03T07:05:46;100404.00;;;6.21;91.55
74327;BME280;62745;51.060;13.786;2023-02-03T07:08:11;100390.75;;;6.21;91.16
74327;BME280;62745;51.060;13.786;2023-02-03T07:10:37;100386.97;;;6.23;91.42
74327;BME280;62745;51.060;13.786;2023-02-03T07:13:06;100389.94;;;6.28;90.16
74327;BME280;62745;51.060;13.786;2023-02-03T07:15:31;100372.56;;;6.34;89.67
74327;BME280;62745;51.060;13.786;2023-02-03T07:17:57;100382.66;;;6.30;90.04
74327;BME280;62745;51.060;13.786;2023-02-03T07:20:23;100385.66;;;6.36;89.27
74327;BME280;62745;51.060;13.786;2023-02-03T07:22:55;100382.84;;;6.37;89.08
74327;BME280;62745;51.060;13.786;2023-02-03T07:25:22;100362.97;;;6.41;88.55
74327;BME280;62745;51.060;13.786;2023-02-03T07:27:47;100365.78;;;6.48;87.74
74327;BME280;62745;51.060;13.786;2023-02-03T07:30:13;100365.97;;;6.46;88.06
74327;BME280;62745;51.060;13.786;2023-02-03T07:32:38;100382.38;;;6.50;87.72
74327;BME280;62745;51.060;13.786;2023-02-03T07:35:04;100384.88;;;6.51;87.94
74327;BME280;62745;51.060;13.786;2023-02-03T07:37:29;100362.66;;;6.60;86.97
74327;BME280;62745;51.060;13.786;2023-02-03T07:39:55;100374.44;;;6.66;85.81
74327;BME280;62745;51.060;13.786;2023-02-03T07:42:20;100373.78;;;6.64;86.71
74327;BME280;62745;51.060;13.786;2023-02-03T07:44:45;100372.94;;;6.63;87.45
74327;BME280;62745;51.060;13.786;2023-02-03T07:47:11;100371.78;;;6.66;87.39
74327;BME280;62745;51.060;13.786;2023-02-03T07:49:36;100348.22;;;6.71;85.88
74327;BME280;62745;51.060;13.786;2023-02-03T07:52:01;100353.03;;;6.51;88.71
74327;BME280;62745;51.060;13.786;2023-02-03T07:54:26;100355.69;;;6.43;88.94
74327;BME280;62745;51.060;13.786;2023-02-03T07:56:51;100353.66;;;6.37;90.17
74327;BME280;62745;51.060;13.786;2023-02-03T07:59:18;100343.19;;;6.27;90.82
74327;BME280;62745;51.060;13.786;2023-02-03T08:01:43;100349.66;;;6.25;91.36
74327;BME280;62745;51.060;13.786;2023-02-03T08:04:08;100336.84;;;6.20;91.08
74327;BME280;62745;51.060;13.786;2023-02-03T08:06:36;100350.63;;;6.16;91.76
74327;BME280;62745;51.060;13.786;2023-02-03T08:09:01;100338.84;;;6.10;93.29
74327;BME280;62745;51.060;13.786;2023-02-03T08:11:26;100350.91;;;6.04;93.00
74327;BME280;62745;51.060;13.786;2023-02-03T08:13:52;100328.69;;;5.97;94.07
74327;BME280;62745;51.060;13.786;2023-02-03T08:16:17;100327.19;;;6.03;93.37
74327;BME280;62745;51.060;13.786;2023-02-03T08:18:42;100324.38;;;6.04;93.16
74327;BME280;62745;51.060;13.786;2023-02-03T08:21:07;100317.28;;;6.05;92.74
74327;BME280;62745;51.060;13.786;2023-02-03T08:23:33;100321.44;;;6.08;92.79
74327;BME280;62745;51.060;13.786;2023-02-03T08:25:58;100343.31;;;6.10;92.12
74327;BME280;62745;51.060;13.786;2023-02-03T08:28:23;100319.44;;;6.10;93.03
74327;BME280;62745;51.060;13.786;2023-02-03T08:30:49;100324.44;;;6.21;91.69
74327;BME280;62745;51.060;13.786;2023-02-03T08:33:14;100315.00;;;6.26;90.34
74327;BME280;62745;51.060;13.786;2023-02-03T08:35:39;100305.41;;;6.25;91.25
74327;BME280;62745;51.060;13.786;2023-02-03T08:38:05;100329.28;;;6.25;91.35
74327;BME280;62745;51.060;13.786;2023-02-03T08:40:31;100328.44;;;6.25;90.96
74327;BME280;62745;51.060;13.786;2023-02-03T08:42:56;100323.13;;;6.25;91.70
74327;BME280;62745;51.060;13.786;2023-02-03T08:45:21;100312.53;;;6.25;91.72
74327;BME280;62745;51.060;13.786;2023-02-03T08:47:47;100312.34;;;6.26;91.17
74327;BME280;62745;51.060;13.786;2023-02-03T08:50:12;100310.88;;;6.24;91.98
74327;BME280;62745;51.060;13.786;2023-02-03T08:52:38;100298.06;;;6.19;92.31
74327;BME280;62745;51.060;13.786;2023-02-03T08:55:03;100299.06;;;6.18;92.52
74327;BME280;62745;51.060;13.786;2023-02-03T08:57:33;100291.28;;;6.17;93.26
74327;BME280;62745;51.060;13.786;2023-02-03T08:59:58;100303.03;;;6.14;92.83
74327;BME280;62745;51.060;13.786;2023-02-03T09:02:24;100299.72;;;6.12;93.41
74327;BME280;62745;51.060;13.786;2023-02-03T09:04:49;100300.06;;;6.09;93.37
74327;BME280;62745;51.060;13.786;2023-02-03T09:07:15;100293.75;;;6.10;93.44
74327;BME280;62745;51.060;13.786;2023-02-03T09:09:41;100303.38;;;6.11;93.42
74327;BME280;62745;51.060;13.786;2023-02-03T09:12:06;100305.19;;;6.11;93.53
74327;BME280;62745;51.060;13.786;2023-02-03T09:14:33;100289.78;;;6.06;94.52
74327;BME280;62745;51.060;13.786;2023-02-03T09:17:00;100275.97;;;6.02;94.58
74327;BME280;62745;51.060;13.786;2023-02-03T09:19:25;100268.19;;;6.01;94.82
74327;BME280;62745;51.060;13.786;2023-02-03T09:21:51;100249.97;;;5.90;95.18
74327;BME280;62745;51.060;13.786;2023-02-03T09:24:17;100272.66;;;6.00;95.30
74327;BME280;62745;51.060;13.786;2023-02-03T09:26:43;100258.59;;;6.00;94.78
74327;BME280;62745;51.060;13.786;2023-02-03T09:29:08;100244.34;;;6.01;94.64
74327;BME280;62745;51.060;13.786;2023-02-03T09:31:34;100242.19;;;6.04;94.89
74327;BME280;62745;51.060;13.786;2023-02-03T09:33:59;100244.19;;;6.11;94.89
74327;BME280;62745;51.060;13.786;2023-02-03T09:36:25;100266.25;;;6.11;94.08
74327;BME280;62745;51.060;13.786;2023-02-03T09:38:50;100247.34;;;6.14;93.66
74327;BME280;62745;51.060;13.786;2023-02-03T09:46:24;100199.78;;;6.13;94.57
74327;BME280;62745;51.060;13.786;2023-02-03T09:48:58;100195.81;;;6.09;95.87
74327;BME280;62745;51.060;13.786;2023-02-03T09:51:28;100187.00;;;6.08;95.72
74327;BME280;62745;51.060;13.786;2023-02-03T09:54:01;100180.06;;;6.07;95.73
74327;BME280;62745;51.060;13.786;2023-02-03T09:56:33;100174.91;;;6.06;95.83
74327;BME280;62745;51.060;13.786;2023-02-03T09:59:00;100175.88;;;6.04;96.57
74327;BME280;62745;51.060;13.786;2023-02-03T10:01:33;100166.44;;;6.02;96.58
74327;BME280;62745;51.060;13.786;2023-02-03T10:06:47;100181.38;;;6.11;95.27
74327;BME280;62745;51.060;13.786;2023-02-03T10:09:25;100165.47;;;6.11;95.34
74327;BME280;62745;51.060;13.786;2023-02-03T10:12:46;100155.34;;;6.15;96.13
74327;BME280;62745;51.060;13.786;2023-02-03T10:15:40;100155.00;;;6.18;95.50
74327;BME280;62745;51.060;13.786;2023-02-03T10:18:13;100126.50;;;6.20;94.59
74327;BME280;62745;51.060;13.786;2023-02-03T10:20:45;100138.75;;;6.21;95.14
74327;BME280;62745;51.060;13.786;2023-02-03T10:23:18;100128.50;;;6.18;95.70
74327;BME280;62745;51.060;13.786;2023-02-03T10:25:49;100124.84;;;6.19;95.48
74327;BME280;62745;51.060;13.786;2023-02-03T10:28:21;100122.19;;;6.19;95.86
74327;BME280;62745;51.060;13.786;2023-02-03T10:31:13;100107.63;;;6.23;95.30
74327;BME280;62745;51.060;13.786;2023-02-03T10:33:34;100104.28;;;6.21;96.38
74327;BME280;62745;51.060;13.786;2023-02-03T10:39:00;100109.25;;;6.16;97.24
74327;BME280;62745;51.060;13.786;2023-02-03T10:41:28;100075.28;;;6.03;97.53
74327;BME280;62745;51.060;13.786;2023-02-03T10:43:54;100080.41;;;6.21;96.78
74327;BME280;62745;51.060;13.786;2023-02-03T10:46:26;100103.63;;;6.27;96.07
74327;BME280;62745;51.060;13.786;2023-02-03T10:48:52;100096.50;;;6.27;96.27
74327;BME280;62745;51.060;13.786;2023-02-03T10:51:22;100071.13;;;6.25;96.96
74327;BME280;62745;51.060;13.786;2023-02-03T10:53:48;100063.00;;;6.26;97.20
74327;BME280;62745;51.060;13.786;2023-02-03T10:56:17;100071.94;;;6.33;96.50
74327;BME280;62745;51.060;13.786;2023-02-03T11:01:19;100051.06;;;6.39;96.00
74327;BME280;62745;51.060;13.786;2023-02-03T11:04:00;100054.53;;;6.39;96.30
74327;BME280;62745;51.060;13.786;2023-02-03T11:06:27;100051.50;;;6.50;95.46
74327;BME280;62745;51.060;13.786;2023-02-03T11:08:53;100034.91;;;6.56;94.10
74327;BME280;62745;51.060;13.786;2023-02-03T11:13:45;100037.00;;;6.69;93.08
74327;BME280;62745;51.060;13.786;2023-02-03T11:16:17;100056.38;;;6.78;92.42
74327;BME280;62745;51.060;13.786;2023-02-03T11:21:46;100043.72;;;6.88;91.72
74327;BME280;62745;51.060;13.786;2023-02-03T11:26:46;100023.91;;;6.68;93.51
74327;BME280;62745;51.060;13.786;2023-02-03T11:29:19;100019.63;;;6.58;95.33
74327;BME280;62745;51.060;13.786;2023-02-03T11:31:48;100010.03;;;6.57;95.86
74327;BME280;62745;51.060;13.786;2023-02-03T11:34:17;100013.31;;;6.59;95.58
74327;BME280;62745;51.060;13.786;2023-02-03T11:36:44;100029.91;;;6.53;96.86
74327;BME280;62745;51.060;13.786;2023-02-03T11:39:25;100030.91;;;6.52;96.96
74327;BME280;62745;51.060;13.786;2023-02-03T11:41:51;100043.72;;;6.49;98.11
74327;BME280;62745;51.060;13.786;2023-02-03T11:44:25;100031.25;;;6.57;97.47
74327;BME280;62745;51.060;13.786;2023-02-03T11:47:01;100006.22;;;6.52;97.57
74327;BME280;62745;51.060;13.786;2023-02-03T11:55:15;100005.53;;;6.58;98.23
74327;BME280;62745;51.060;13.786;2023-02-03T11:58:07;100001.25;;;6.57;98.25
74327;BME280;62745;51.060;13.786;2023-02-03T12:00:54;99966.50;;;6.67;96.82
74327;BME280;62745;51.060;13.786;2023-02-03T12:06:19;99940.09;;;6.73;96.83
74327;BME280;62745;51.060;13.786;2023-02-03T12:11:45;99897.34;;;6.91;96.72
74327;BME280;62745;51.060;13.786;2023-02-03T12:14:25;99897.81;;;6.94;95.88
74327;BME280;62745;51.060;13.786;2023-02-03T12:17:42;99909.06;;;6.97;96.16
74327;BME280;62745;51.060;13.786;2023-02-03T12:31:08;99942.72;;;7.27;92.86
74327;BME280;62745;51.060;13.786;2023-02-03T12:33:43;99918.34;;;7.23;93.15
74327;BME280;62745;51.060;13.786;2023-02-03T12:36:19;99923.81;;;7.22;93.53
74327;BME280;62745;51.060;13.786;2023-02-03T12:38:50;99933.28;;;7.24;93.42
74327;BME280;62745;51.060;13.786;2023-02-03T12:41:28;99916.78;;;7.29;92.32
74327;BME280;62745;51.060;13.786;2023-02-03T12:44:02;99908.41;;;7.40;91.03
74327;BME280;62745;51.060;13.786;2023-02-03T12:46:42;99890.72;;;7.47;90.62
74327;BME280;62745;51.060;13.786;2023-02-03T12:51:51;99912.19;;;7.61;88.84
74327;BME280;62745;51.060;13.786;2023-02-03T12:54:39;99891.00;;;7.67;88.69
74327;BME280;62745;51.060;13.786;2023-02-03T13:03:05;99912.81;;;7.48;90.87
74327;BME280;62745;51.060;13.786;2023-02-03T13:11:09;99946.38;;;7.03;96.68
74327;BME280;62745;51.060;13.786;2023-02-03T13:13:46;99966.88;;;6.86;98.83
74327;BME280;62745;51.060;13.786;2023-02-03T13:16:14;99960.63;;;6.79;97.30
74327;BME280;62745;51.060;13.786;2023-02-03T13:18:46;99992.44;;;6.56;96.57
74327;BME280;62745;51.060;13.786;2023-02-03T13:21:14;99959.22;;;6.29;93.44
74327;BME280;62745;51.060;13.786;2023-02-03T13:23:43;99984.09;;;6.28;91.47
74327;BME280;62745;51.060;13.786;2023-02-03T13:26:32;99990.09;;;6.14;89.30
74327;BME280;62745;51.060;13.786;2023-02-03T13:32:28;99993.25;;;6.10;88.85
74327;BME280;62745;51.060;13.786;2023-02-03T13:35:09;99981.00;;;6.09;89.89
74327;BME280;62745;51.060;13.786;2023-02-03T13:37:47;99992.22;;;6.19;89.79
74327;BME280;62745;51.060;13.786;2023-02-03T13:43:16;99985.91;;;6.28;86.61
74327;BME280;62745;51.060;13.786;2023-02-03T13:45:48;99980.44;;;6.29;85.49
74327;BME280;62745;51.060;13.786;2023-02-03T13:48:17;99980.25;;;6.39;85.73
74327;BME280;62745;51.060;13.786;2023-02-03T13:50:45;100011.22;;;6.47;84.53
74327;BME280;62745;51.060;13.786;2023-02-03T13:53:20;100014.00;;;6.53;83.14
74327;BME280;62745;51.060;13.786;2023-02-03T13:55:58;100018.47;;;6.53;83.87
74327;BME280;62745;51.060;13.786;2023-02-03T13:58:32;100010.22;;;6.48;84.88
74327;BME280;62745;51.060;13.786;2023-02-03T14:05:58;100023.13;;;6.59;80.64
74327;BME280;62745;51.060;13.786;2023-02-03T14:16:35;100025.59;;;6.60;77.65
74327;BME280;62745;51.060;13.786;2023-02-03T14:19:01;100034.88;;;6.64;74.72
74327;BME280;62745;51.060;13.786;2023-02-03T14:21:28;100048.31;;;6.55;75.03
74327;BME280;62745;51.060;13.786;2023-02-03T14:24:10;100055.97;;;6.58;74.46
74327;BME280;62745;51.060;13.786;2023-02-03T14:26:40;100052.25;;;6.75;72.15
74327;BME280;62745;51.060;13.786;2023-02-03T14:29:09;100040.88;;;6.58;74.17
74327;BME280;62745;51.060;13.786;2023-02-03T14:31:55;100075.06;;;6.45;76.42